Time;durP1;ratioP1;P1;durP2;ratioP2;P2;SDS_P1;SDS_P2;PMS_P1;PMS_P2;Temp;Humidity;BMP_temperature;BMP_pressure;BME280_temperature;BME280_humidity;BME280_pressure;Samples;Min_cycle;Max_cycle;Signal;HPM_P1;HPM_P2
2021/01/15 00:04:42;;;;;;;14.10;6.73;;;;;;;;;;10404322;28;20202;-74
2021/01/15 00:09:44;;;;;;;14.93;7.80;;;;;;;;;;10387001;28;20599;-72
2021/01/15 00:14:47;;;;;;;14.73;7.57;;;;;;;;;;10398292;28;20264;-72
2021/01/15 00:19:51;;;;;;;14.83;7.67;;;;;;;;;;10402942;28;20214;-71
2021/01/15 00:24:53;;;;;;;14.07;7.57;;;;;;;;;;10395503;28;20197;-71
2021/01/15 00:29:56;;;;;;;17.57;8.17;;;;;;;;;;10408803;28;20297;-72
2021/01/15 00:34:57;;;;;;;16.23;8.97;;;;;;;;;;10397418;28;20233;-71
2021/01/15 00:39:59;;;;;;;18.93;8.90;;;;;;;;;;10400695;28;20633;-72
2021/01/15 00:45:03;;;;;;;17.63;9.70;;;;;;;;;;10400227;28;20198;-72
2021/01/15 00:50:05;;;;;;;18.23;9.47;;;;;;;;;;10393819;28;20284;-72
2021/01/15 00:55:08;;;;;;;19.80;9.13;;;;;;;;;;10398473;28;20193;-71
2021/01/15 01:00:11;;;;;;;17.37;8.73;;;;;;;;;;10401328;28;20253;-72
2021/01/15 01:05:22;;;;;;;21.40;10.20;;;;;;;;;;10407395;28;20194;-71
2021/01/15 01:10:42;;;;;;;;;;;;;;;;;;;;;
2021/01/15 01:16:28;;;;;;;20.60;10.13;;;;;;;;;;10406533;28;20268;-72
2021/01/15 01:21:57;;;;;;;23.40;10.77;;;;;;;;;;10407387;28;20277;-70
2021/01/15 01:26:59;;;;;;;22.03;11.33;;;;;;;;;;10390473;28;20289;-71
2021/01/15 01:32:03;;;;;;;24.53;12.27;;;;;;;;;;10384646;28;20685;-70
2021/01/15 01:37:06;;;;;;;24.63;11.87;;;;;;;;;;10397142;28;20221;-70
2021/01/15 01:42:08;;;;;;;25.43;11.77;;;;;;;;;;10402955;28;20230;-71
2021/01/15 01:47:10;;;;;;;29.70;13.77;;;;;;;;;;10392009;28;20244;-71
2021/01/15 01:52:12;;;;;;;27.13;12.77;;;;;;;;;;10409640;28;20200;-70
2021/01/15 01:57:14;;;;;;;26.67;12.90;;;;;;;;;;10407625;28;20244;-70
2021/01/15 02:02:16;;;;;;;29.10;13.57;;;;;;;;;;10408283;28;20285;-69
2021/01/15 02:07:19;;;;;;;27.40;12.63;;;;;;;;;;10402991;28;20234;-68
2021/01/15 02:12:27;;;;;;;24.70;12.03;;;;;;;;;;10409302;28;20713;-69
2021/01/15 02:17:32;;;;;;;28.53;13.37;;;;;;;;;;10406129;28;20221;-69
2021/01/15 02:22:43;;;;;;;25.87;13.33;;;;;;;;;;10404871;28;20273;-70
2021/01/15 02:28:05;;;;;;;30.67;13.90;;;;;;;;;;10410330;28;20210;-70
2021/01/15 02:33:11;;;;;;;31.63;14.33;;;;;;;;;;10402028;28;20202;-70
2021/01/15 02:38:20;;;;;;;29.07;12.90;;;;;;;;;;10407062;28;20237;-70
2021/01/15 02:43:22;;;;;;;32.80;14.03;;;;;;;;;;10409711;28;20194;-69
2021/01/15 02:48:26;;;;;;;29.77;13.33;;;;;;;;;;10412484;28;20615;-70
2021/01/15 02:53:28;;;;;;;28.17;12.63;;;;;;;;;;10408495;28;20637;-70
2021/01/15 02:58:29;;;;;;;32.07;13.93;;;;;;;;;;10412506;28;20260;-70
2021/01/15 03:03:33;;;;;;;36.33;15.17;;;;;;;;;;10405893;28;20252;-70
2021/01/15 03:08:35;;;;;;;38.10;15.63;;;;;;;;;;10413458;28;20308;-70
2021/01/15 03:13:38;;;;;;;35.53;15.97;;;;;;;;;;10405450;28;20578;-70
2021/01/15 03:18:41;;;;;;;32.60;14.50;;;;;;;;;;10384885;28;20221;-69
2021/01/15 03:23:43;;;;;;;34.90;14.83;;;;;;;;;;10404743;28;20196;-70
2021/01/15 03:28:45;;;;;;;34.20;15.53;;;;;;;;;;10409624;28;20652;-70
2021/01/15 03:33:47;;;;;;;31.43;15.07;;;;;;;;;;10406127;28;20216;-70
2021/01/15 03:38:49;;;;;;;36.50;16.17;;;;;;;;;;10398017;28;20304;-69
2021/01/15 03:43:50;;;;;;;34.50;15.80;;;;;;;;;;10390472;28;20329;-70
2021/01/15 03:48:53;;;;;;;40.03;16.53;;;;;;;;;;10399206;28;20280;-70
2021/01/15 03:53:54;;;;;;;43.43;17.17;;;;;;;;;;10401207;28;20273;-69
2021/01/15 03:58:56;;;;;;;37.57;16.83;;;;;;;;;;10406759;28;20210;-68
2021/01/15 04:03:59;;;;;;;39.40;16.57;;;;;;;;;;10404076;28;20581;-69
2021/01/15 04:09:00;;;;;;;43.30;18.70;;;;;;;;;;10406921;28;20209;-69
2021/01/15 04:14:05;;;;;;;34.00;15.63;;;;;;;;;;10418319;28;20241;-70
2021/01/15 04:19:08;;;;;;;37.33;16.83;;;;;;;;;;10405194;28;20217;-70
2021/01/15 04:24:09;;;;;;;43.70;17.80;;;;;;;;;;10416486;28;20535;-70
2021/01/15 04:29:11;;;;;;;45.03;17.70;;;;;;;;;;10406798;28;20285;-69
2021/01/15 04:34:13;;;;;;;46.97;18.57;;;;;;;;;;10405705;28;20190;-72
2021/01/15 04:39:15;;;;;;;44.40;18.03;;;;;;;;;;10396573;28;20284;-71
2021/01/15 04:44:17;;;;;;;48.47;18.47;;;;;;;;;;10405106;28;20194;-69
2021/01/15 04:49:22;;;;;;;42.10;19.50;;;;;;;;;;10398925;28;20293;-71
2021/01/15 04:54:29;;;;;;;49.07;19.30;;;;;;;;;;10398588;28;20806;-70
2021/01/15 04:59:33;;;;;;;40.97;18.27;;;;;;;;;;10397209;28;20293;-70
2021/01/15 05:04:36;;;;;;;45.27;17.67;;;;;;;;;;10398617;28;20281;-70
2021/01/15 05:09:39;;;;;;;49.70;18.43;;;;;;;;;;10395272;28;20309;-70
2021/01/15 05:14:42;;;;;;;42.67;17.93;;;;;;;;;;10377339;28;20293;-71
2021/01/15 05:19:44;;;;;;;51.80;21.10;;;;;;;;;;10401603;28;20593;-70
2021/01/15 05:24:47;;;;;;;41.70;18.33;;;;;;;;;;10407523;28;20213;-70
2021/01/15 05:30:10;;;;;;;43.97;18.73;;;;;;;;;;10402281;28;20214;-71
2021/01/15 05:35:13;;;;;;;41.97;18.20;;;;;;;;;;10405772;28;20368;-69
2021/01/15 05:40:15;;;;;;;45.43;18.80;;;;;;;;;;10409991;28;20253;-71
2021/01/15 05:45:17;;;;;;;44.23;18.73;;;;;;;;;;10412520;28;20205;-72
2021/01/15 05:50:19;;;;;;;38.20;17.00;;;;;;;;;;10402868;28;20217;-69
2021/01/15 05:55:21;;;;;;;47.17;17.83;;;;;;;;;;10395042;28;20225;-71
2021/01/15 06:00:40;;;;;;;48.83;20.20;;;;;;;;;;10413942;28;20652;-69
2021/01/15 06:05:48;;;;;;;62.90;23.87;;;;;;;;;;10397965;28;20205;-70
2021/01/15 06:10:50;;;;;;;69.47;27.87;;;;;;;;;;10407092;28;20256;-71
2021/01/15 06:15:51;;;;;;;55.60;25.67;;;;;;;;;;10413113;28;20272;-69
2021/01/15 06:21:05;;;;;;;49.83;22.37;;;;;;;;;;10411990;28;20220;-70
2021/01/15 06:26:08;;;;;;;40.97;20.10;;;;;;;;;;10384485;28;20202;-70
2021/01/15 06:31:09;;;;;;;37.50;17.47;;;;;;;;;;10408622;28;20644;-70
2021/01/15 06:36:12;;;;;;;35.03;17.73;;;;;;;;;;10388326;28;20240;-69
2021/01/15 06:41:16;;;;;;;31.37;17.80;;;;;;;;;;10407884;28;20268;-70
2021/01/15 06:46:21;;;;;;;33.53;15.97;;;;;;;;;;10410462;28;20205;-70
2021/01/15 06:51:24;;;;;;;31.20;16.63;;;;;;;;;;10405928;28;20221;-70
2021/01/15 06:56:29;;;;;;;29.20;15.17;;;;;;;;;;10406951;28;20238;-70
2021/01/15 07:01:38;;;;;;;21.63;9.50;;;;;;;;;;10405355;28;20284;-69
2021/01/15 07:06:51;;;;;;;32.73;16.83;;;;;;;;;;10391710;28;20205;-70
2021/01/15 07:11:54;;;;;;;28.60;15.47;;;;;;;;;;10395914;28;20205;-70
2021/01/15 07:16:56;;;;;;;27.07;12.80;;;;;;;;;;10407307;28;20225;-69
2021/01/15 07:22:08;;;;;;;34.07;16.07;;;;;;;;;;10404427;28;20213;-70
2021/01/15 07:27:12;;;;;;;29.53;15.20;;;;;;;;;;10406889;28;20542;-71
2021/01/15 07:32:19;;;;;;;28.77;14.97;;;;;;;;;;10403475;28;20190;-70
2021/01/15 07:37:23;;;;;;;23.50;12.27;;;;;;;;;;10389990;28;20232;-69
2021/01/15 07:42:38;;;;;;;33.03;13.63;;;;;;;;;;10407128;28;20266;-69
2021/01/15 07:47:39;;;;;;;26.03;12.70;;;;;;;;;;10380504;28;20300;-69
2021/01/15 07:52:59;;;;;;;25.97;12.53;;;;;;;;;;10405935;28;20253;-70
2021/01/15 07:58:04;;;;;;;29.00;13.57;;;;;;;;;;10384486;28;20231;-69
2021/01/15 08:03:06;;;;;;;16.70;7.33;;;;;;;;;;10399986;28;20201;-70
2021/01/15 08:08:12;;;;;;;26.23;13.20;;;;;;;;;;10397736;28;20249;-70
2021/01/15 08:13:32;;;;;;;24.07;11.87;;;;;;;;;;10404264;28;20248;-70
2021/01/15 08:18:34;;;;;;;26.53;12.03;;;;;;;;;;10403871;28;20297;-70
2021/01/15 08:23:36;;;;;;;25.13;11.07;;;;;;;;;;10403994;28;20197;-69
2021/01/15 08:28:38;;;;;;;28.60;13.57;;;;;;;;;;10402297;28;20213;-70
2021/01/15 08:33:40;;;;;;;25.93;12.23;;;;;;;;;;10400191;28;20197;-70
2021/01/15 08:38:43;;;;;;;24.83;12.57;;;;;;;;;;10379038;28;20297;-71
2021/01/15 08:43:47;;;;;;;25.33;13.00;;;;;;;;;;10401906;28;20677;-69
2021/01/15 08:49:11;;;;;;;23.57;11.80;;;;;;;;;;10401081;28;20222;-72
2021/01/15 08:54:32;;;;;;;25.30;12.50;;;;;;;;;;10421605;28;20197;-71
2021/01/15 08:59:49;;;;;;;24.20;11.80;;;;;;;;;;10399043;28;20899;-70
2021/01/15 09:05:11;;;;;;;22.37;11.00;;;;;;;;;;10403680;28;20277;-71
2021/01/15 09:10:56;;;;;;;21.83;11.10;;;;;;;;;;10409389;28;20225;-70
2021/01/15 09:16:16;;;;;;;26.47;12.97;;;;;;;;;;10402170;28;20292;-69
2021/01/15 09:21:18;;;;;;;19.63;10.73;;;;;;;;;;10400663;28;20743;-72
2021/01/15 09:26:21;;;;;;;18.53;10.73;;;;;;;;;;10394574;28;20708;-68
2021/01/15 09:31:22;;;;;;;17.77;10.50;;;;;;;;;;10398702;28;20290;-67
2021/01/15 09:36:26;;;;;;;19.50;10.77;;;;;;;;;;10399432;28;20202;-70
2021/01/15 09:41:29;;;;;;;17.80;11.10;;;;;;;;;;10403012;28;20221;-69
2021/01/15 09:46:30;;;;;;;16.00;10.33;;;;;;;;;;10381138;28;20765;-69
2021/01/15 09:51:33;;;;;;;17.97;11.13;;;;;;;;;;10405448;28;20283;-69
2021/01/15 09:56:40;;;;;;;18.53;11.83;;;;;;;;;;10400952;28;20641;-68
2021/01/15 10:01:43;;;;;;;18.67;11.47;;;;;;;;;;10399920;28;20228;-69
2021/01/15 10:06:45;;;;;;;19.17;11.80;;;;;;;;;;10405151;28;20593;-69
2021/01/15 10:11:48;;;;;;;17.33;10.70;;;;;;;;;;10416011;28;20634;-71
2021/01/15 10:16:50;;;;;;;13.93;9.53;;;;;;;;;;10415219;28;20364;-70
2021/01/15 10:21:52;;;;;;;13.40;9.53;;;;;;;;;;10406335;28;20309;-70
2021/01/15 10:26:54;;;;;;;15.87;10.67;;;;;;;;;;10410454;28;20220;-70
2021/01/15 10:31:56;;;;;;;15.70;10.50;;;;;;;;;;10407729;28;20676;-69
2021/01/15 10:36:58;;;;;;;18.17;13.23;;;;;;;;;;10401721;28;20233;-69
2021/01/15 10:42:03;;;;;;;15.40;10.80;;;;;;;;;;10392890;28;20233;-71
2021/01/15 10:47:13;;;;;;;17.33;11.33;;;;;;;;;;10386844;28;20232;-67
2021/01/15 10:52:15;;;;;;;16.77;12.33;;;;;;;;;;10406645;28;20668;-69
2021/01/15 10:57:17;;;;;;;16.70;12.03;;;;;;;;;;10405835;28;20256;-69
2021/01/15 11:02:19;;;;;;;17.57;11.90;;;;;;;;;;10386317;28;20218;-70
2021/01/15 11:07:21;;;;;;;18.40;11.67;;;;;;;;;;10411533;28;20217;-70
2021/01/15 11:12:23;;;;;;;19.33;12.23;;;;;;;;;;10405100;28;20213;-70
2021/01/15 11:17:25;;;;;;;16.83;11.10;;;;;;;;;;10406414;28;20300;-70
2021/01/15 11:22:27;;;;;;;16.87;10.87;;;;;;;;;;10404598;28;20721;-71
2021/01/15 11:27:29;;;;;;;17.20;10.80;;;;;;;;;;10409280;28;20276;-71
2021/01/15 11:32:31;;;;;;;14.30;10.30;;;;;;;;;;10390629;28;20193;-69
2021/01/15 11:37:35;;;;;;;15.10;9.83;;;;;;;;;;10402496;28;20217;-69
2021/01/15 11:42:37;;;;;;;15.30;9.80;;;;;;;;;;10401746;28;20238;-69
2021/01/15 11:47:39;;;;;;;12.37;8.87;;;;;;;;;;10392741;28;20224;-70
2021/01/15 11:52:41;;;;;;;11.90;9.13;;;;;;;;;;10402169;28;20276;-70
2021/01/15 11:57:43;;;;;;;15.10;9.67;;;;;;;;;;10407833;28;20593;-71
2021/01/15 12:02:45;;;;;;;13.80;9.50;;;;;;;;;;10400897;28;20245;-70
2021/01/15 12:07:46;;;;;;;12.93;9.33;;;;;;;;;;10406880;28;20284;-70
2021/01/15 12:12:49;;;;;;;13.37;10.07;;;;;;;;;;10409488;28;20238;-70
2021/01/15 12:17:50;;;;;;;11.67;9.07;;;;;;;;;;10407851;28;20292;-70
2021/01/15 12:22:52;;;;;;;12.90;8.87;;;;;;;;;;10401530;28;20256;-71
2021/01/15 12:27:55;;;;;;;11.67;9.17;;;;;;;;;;10413126;28;20209;-70
2021/01/15 12:32:57;;;;;;;12.90;9.83;;;;;;;;;;10390464;28;20240;-69
2021/01/15 12:38:03;;;;;;;14.23;10.27;;;;;;;;;;10399775;28;20729;-70
2021/01/15 12:43:06;;;;;;;12.53;9.93;;;;;;;;;;10402596;28;20217;-70
2021/01/15 12:48:08;;;;;;;15.83;11.77;;;;;;;;;;10384099;28;20724;-68
2021/01/15 12:53:10;;;;;;;12.67;9.00;;;;;;;;;;10401949;28;20186;-70
2021/01/15 12:58:13;;;;;;;13.30;9.30;;;;;;;;;;10401520;28;21047;-70
2021/01/15 13:03:15;;;;;;;11.50;8.63;;;;;;;;;;10402032;28;20288;-72
2021/01/15 13:08:16;;;;;;;11.30;8.23;;;;;;;;;;10404862;28;20271;-72
2021/01/15 13:13:19;;;;;;;11.87;8.27;;;;;;;;;;10401331;28;20198;-70
2021/01/15 13:18:21;;;;;;;12.03;8.57;;;;;;;;;;10408847;28;20301;-71
2021/01/15 13:23:23;;;;;;;13.97;8.87;;;;;;;;;;10385809;28;20285;-71
2021/01/15 13:28:38;;;;;;;12.33;8.20;;;;;;;;;;10408334;28;20213;-71
2021/01/15 13:33:39;;;;;;;12.67;8.80;;;;;;;;;;10405842;28;20276;-71
2021/01/15 13:38:42;;;;;;;12.70;9.07;;;;;;;;;;10383588;28;20236;-72
2021/01/15 13:43:44;;;;;;;14.17;9.63;;;;;;;;;;10414364;28;20189;-71
2021/01/15 13:48:45;;;;;;;14.83;10.80;;;;;;;;;;10413835;28;20289;-71
2021/01/15 13:53:52;;;;;;;16.77;10.70;;;;;;;;;;10410876;28;20583;-71
2021/01/15 13:58:55;;;;;;;14.77;9.90;;;;;;;;;;10389894;28;20224;-72
2021/01/15 14:03:57;;;;;;;14.93;10.30;;;;;;;;;;10395639;28;20204;-70
2021/01/15 14:09:05;;;;;;;16.70;10.40;;;;;;;;;;10407574;28;20221;-74
2021/01/15 14:14:07;;;;;;;16.90;10.30;;;;;;;;;;10410004;28;20743;-70
2021/01/15 14:19:09;;;;;;;15.33;10.43;;;;;;;;;;10403017;28;20304;-72
2021/01/15 14:24:10;;;;;;;18.00;10.73;;;;;;;;;;10410364;28;20252;-71
2021/01/15 14:29:13;;;;;;;15.97;10.03;;;;;;;;;;10408029;28;20608;-72
2021/01/15 14:34:15;;;;;;;17.40;9.93;;;;;;;;;;10407530;28;20213;-71
2021/01/15 14:39:16;;;;;;;17.33;9.93;;;;;;;;;;10405957;28;20252;-72
2021/01/15 14:44:19;;;;;;;18.13;10.13;;;;;;;;;;10388614;28;20653;-71
2021/01/15 14:49:20;;;;;;;17.17;9.53;;;;;;;;;;10385948;28;20334;-72
2021/01/15 14:54:22;;;;;;;17.27;10.70;;;;;;;;;;10407643;28;20182;-72
2021/01/15 14:59:42;;;;;;;16.93;10.47;;;;;;;;;;10402451;28;20808;-72
2021/01/15 15:04:44;;;;;;;18.30;10.13;;;;;;;;;;10409399;28;20194;-72
2021/01/15 15:09:45;;;;;;;20.10;10.60;;;;;;;;;;10386984;28;20210;-72
2021/01/15 15:14:48;;;;;;;17.43;9.70;;;;;;;;;;10383529;28;20233;-72
2021/01/15 15:19:50;;;;;;;17.40;9.47;;;;;;;;;;10383020;28;20304;-72
2021/01/15 15:24:51;;;;;;;17.70;10.00;;;;;;;;;;10408729;28;20194;-73
2021/01/15 15:29:55;;;;;;;17.87;10.17;;;;;;;;;;10403854;28;20823;-72
2021/01/15 15:34:57;;;;;;;16.27;9.53;;;;;;;;;;10402536;28;20217;-71
2021/01/15 15:39:58;;;;;;;17.30;9.07;;;;;;;;;;10408656;28;20217;-73
2021/01/15 15:45:03;;;;;;;17.17;9.40;;;;;;;;;;10392072;28;20237;-72
2021/01/15 15:50:05;;;;;;;17.50;9.67;;;;;;;;;;10401989;28;20233;-71
2021/01/15 15:55:08;;;;;;;18.17;10.20;;;;;;;;;;10411894;28;20301;-72
2021/01/15 16:00:11;;;;;;;17.47;10.70;;;;;;;;;;10408706;28;20304;-72
2021/01/15 16:05:14;;;;;;;19.77;10.53;;;;;;;;;;10388857;28;20197;-72
2021/01/15 16:10:17;;;;;;;20.07;10.73;;;;;;;;;;10406425;28;20210;-72
2021/01/15 16:15:20;;;;;;;18.07;10.33;;;;;;;;;;10385850;28;20198;-74
2021/01/15 16:20:22;;;;;;;20.73;11.37;;;;;;;;;;10391108;28;20279;-72
2021/01/15 16:25:25;;;;;;;19.13;10.30;;;;;;;;;;10401166;28;20205;-73
2021/01/15 16:30:28;;;;;;;20.03;10.87;;;;;;;;;;10371720;28;20667;-74
2021/01/15 16:35:29;;;;;;;18.53;10.63;;;;;;;;;;10388312;28;20198;-74
2021/01/15 16:40:31;;;;;;;20.97;11.77;;;;;;;;;;10384117;28;20218;-72
2021/01/15 16:45:34;;;;;;;18.83;11.23;;;;;;;;;;10386196;28;20248;-73
2021/01/15 16:50:37;;;;;;;21.63;12.20;;;;;;;;;;10402188;28;20921;-73
2021/01/15 16:55:39;;;;;;;21.07;12.10;;;;;;;;;;10384760;28;20189;-73
2021/01/15 17:00:42;;;;;;;19.63;11.93;;;;;;;;;;10394642;28;20224;-73
2021/01/15 17:05:44;;;;;;;21.80;11.40;;;;;;;;;;10414622;28;20321;-73
2021/01/15 17:10:46;;;;;;;21.67;11.37;;;;;;;;;;10394517;28;20348;-72
2021/01/15 17:15:49;;;;;;;19.23;11.07;;;;;;;;;;10388022;28;20213;-72
2021/01/15 17:20:51;;;;;;;19.63;11.27;;;;;;;;;;10414868;28;20217;-73
2021/01/15 17:25:53;;;;;;;20.87;11.10;;;;;;;;;;10401338;28;20255;-73
2021/01/15 17:30:57;;;;;;;21.47;11.73;;;;;;;;;;10408089;28;20709;-72
2021/01/15 17:35:58;;;;;;;22.33;12.37;;;;;;;;;;10413698;28;20221;-72
2021/01/15 17:41:00;;;;;;;21.07;11.70;;;;;;;;;;10397906;28;20244;-73
2021/01/15 17:46:05;;;;;;;18.33;11.20;;;;;;;;;;10399687;28;20563;-72
2021/01/15 17:51:07;;;;;;;22.40;11.53;;;;;;;;;;10395561;28;20225;-73
2021/01/15 17:56:09;;;;;;;22.13;12.33;;;;;;;;;;10383496;28;21050;-74
2021/01/15 18:01:12;;;;;;;19.60;10.30;;;;;;;;;;10398151;28;20210;-74
2021/01/15 18:06:14;;;;;;;23.33;13.70;;;;;;;;;;10415941;28;20248;-74
2021/01/15 18:11:16;;;;;;;22.10;11.90;;;;;;;;;;10399925;28;20686;-72
2021/01/15 18:16:19;;;;;;;23.80;13.87;;;;;;;;;;10403001;28;20304;-72
2021/01/15 18:21:20;;;;;;;23.20;12.50;;;;;;;;;;10415308;28;20222;-72
2021/01/15 18:26:22;;;;;;;21.27;11.83;;;;;;;;;;10409216;28;20217;-72
2021/01/15 18:31:27;;;;;;;21.17;12.83;;;;;;;;;;10415293;28;20282;-73
2021/01/15 18:36:30;;;;;;;20.03;10.23;;;;;;;;;;10414592;28;20205;-72
2021/01/15 18:41:32;;;;;;;19.90;11.10;;;;;;;;;;10392277;28;20801;-73
2021/01/15 18:46:36;;;;;;;23.57;12.73;;;;;;;;;;10408552;28;20599;-73
2021/01/15 18:51:40;;;;;;;20.93;11.83;;;;;;;;;;10391150;28;20238;-73
2021/01/15 18:56:43;;;;;;;21.47;10.00;;;;;;;;;;10396739;28;20202;-72
2021/01/15 19:01:46;;;;;;;22.57;11.87;;;;;;;;;;10416452;28;20214;-73
2021/01/15 19:06:48;;;;;;;26.53;12.93;;;;;;;;;;10421585;28;20186;-72
2021/01/15 19:11:50;;;;;;;21.37;12.63;;;;;;;;;;10402210;28;20229;-72
2021/01/15 19:16:52;;;;;;;21.53;12.17;;;;;;;;;;10404176;28;20190;-73
2021/01/15 19:21:55;;;;;;;23.63;12.40;;;;;;;;;;10421714;28;20209;-72
2021/01/15 19:26:58;;;;;;;23.17;12.00;;;;;;;;;;10410215;28;20266;-73
2021/01/15 19:32:03;;;;;;;24.43;12.57;;;;;;;;;;10391335;28;20670;-72
2021/01/15 19:37:06;;;;;;;22.67;12.37;;;;;;;;;;10407851;28;20329;-72
2021/01/15 19:42:08;;;;;;;22.93;12.97;;;;;;;;;;10409207;28;20217;-73
2021/01/15 19:47:11;;;;;;;19.50;10.23;;;;;;;;;;10396388;28;20544;-72
2021/01/15 19:52:13;;;;;;;23.27;10.87;;;;;;;;;;10405537;28;20631;-73
2021/01/15 19:57:15;;;;;;;23.20;12.87;;;;;;;;;;10390735;28;20221;-73
2021/01/15 20:02:17;;;;;;;23.80;12.97;;;;;;;;;;10401957;28;20296;-72
2021/01/15 20:07:19;;;;;;;20.83;9.97;;;;;;;;;;10405548;28;20229;-73
2021/01/15 20:12:21;;;;;;;22.33;11.37;;;;;;;;;;10404376;28;20205;-71
2021/01/15 20:17:24;;;;;;;19.93;10.63;;;;;;;;;;10412229;28;20719;-72
2021/01/15 20:22:26;;;;;;;22.60;11.47;;;;;;;;;;10392272;28;20281;-68
2021/01/15 20:27:30;;;;;;;25.17;13.37;;;;;;;;;;10405305;28;20296;-71
2021/01/15 20:32:33;;;;;;;21.17;11.73;;;;;;;;;;10392221;28;20197;-73
2021/01/15 20:37:36;;;;;;;25.80;14.13;;;;;;;;;;10387740;28;20340;-73
2021/01/15 20:42:40;;;;;;;23.87;14.03;;;;;;;;;;10408024;28;20202;-72
2021/01/15 20:47:43;;;;;;;23.57;12.83;;;;;;;;;;10407859;28;20586;-68
2021/01/15 20:52:51;;;;;;;24.70;13.73;;;;;;;;;;10399038;28;20573;-71
2021/01/15 20:57:53;;;;;;;24.73;13.20;;;;;;;;;;10393383;28;20229;-69
2021/01/15 21:03:06;;;;;;;24.30;12.77;;;;;;;;;;10386605;28;20217;-70
2021/01/15 21:08:09;;;;;;;24.43;13.03;;;;;;;;;;10411974;28;20264;-70
2021/01/15 21:13:11;;;;;;;17.37;8.13;;;;;;;;;;10392377;28;20288;-71
2021/01/15 21:18:14;;;;;;;19.97;9.93;;;;;;;;;;10412111;28;20217;-69
2021/01/15 21:23:19;;;;;;;24.03;13.23;;;;;;;;;;10404910;28;20676;-70
2021/01/15 21:28:21;;;;;;;22.87;12.77;;;;;;;;;;10411414;28;20574;-70
2021/01/15 21:33:25;;;;;;;24.87;13.23;;;;;;;;;;10410310;28;20799;-71
2021/01/15 21:38:27;;;;;;;25.33;13.87;;;;;;;;;;10395956;28;20303;-72
2021/01/15 21:43:28;;;;;;;23.33;12.40;;;;;;;;;;10416317;28;20296;-70
2021/01/15 21:48:31;;;;;;;20.37;10.80;;;;;;;;;;10413909;28;20292;-70
2021/01/15 21:53:32;;;;;;;25.83;12.97;;;;;;;;;;10407357;28;20279;-70
2021/01/15 21:58:34;;;;;;;25.63;13.83;;;;;;;;;;10405167;28;20214;-71
2021/01/15 22:03:36;;;;;;;26.13;13.63;;;;;;;;;;10427591;28;20229;-70
2021/01/15 22:08:38;;;;;;;23.97;12.77;;;;;;;;;;10406180;28;20241;-71
2021/01/15 22:13:40;;;;;;;23.27;11.33;;;;;;;;;;10410188;28;20201;-72
2021/01/15 22:18:44;;;;;;;25.20;13.40;;;;;;;;;;10409203;28;20705;-72
2021/01/15 22:23:45;;;;;;;23.53;11.77;;;;;;;;;;10409922;28;20653;-72
2021/01/15 22:28:47;;;;;;;24.00;12.20;;;;;;;;;;10400414;28;20240;-71
2021/01/15 22:33:50;;;;;;;25.60;11.97;;;;;;;;;;10402913;28;20189;-72
2021/01/15 22:38:51;;;;;;;25.20;13.33;;;;;;;;;;10412913;28;20248;-71
2021/01/15 22:43:53;;;;;;;18.70;9.90;;;;;;;;;;10404715;28;20218;-71
2021/01/15 22:48:56;;;;;;;22.83;12.37;;;;;;;;;;10406612;28;20570;-71
2021/01/15 22:53:58;;;;;;;19.30;9.03;;;;;;;;;;10400516;28;20700;-72
2021/01/15 22:58:59;;;;;;;21.33;9.37;;;;;;;;;;10408839;28;20599;-72
2021/01/15 23:04:03;;;;;;;23.03;12.27;;;;;;;;;;10406914;28;20194;-71
2021/01/15 23:09:05;;;;;;;26.40;14.47;;;;;;;;;;10402428;28;20217;-72
2021/01/15 23:14:07;;;;;;;23.17;12.00;;;;;;;;;;10424630;28;20201;-73
2021/01/15 23:19:09;;;;;;;24.80;13.50;;;;;;;;;;10387469;28;20328;-72
2021/01/15 23:24:13;;;;;;;23.23;11.87;;;;;;;;;;10414823;28;20252;-73
2021/01/15 23:29:15;;;;;;;21.03;10.07;;;;;;;;;;10402848;28;20341;-72
2021/01/15 23:34:17;;;;;;;23.73;10.07;;;;;;;;;;10410342;28;20269;-72
2021/01/15 23:39:19;;;;;;;26.70;13.87;;;;;;;;;;10408558;28;20225;-73
2021/01/15 23:44:21;;;;;;;21.87;12.20;;;;;;;;;;10396293;28;20281;-73
2021/01/15 23:49:23;;;;;;;22.57;12.87;;;;;;;;;;10403817;28;20725;-73
2021/01/15 23:54:24;;;;;;;18.67;9.23;;;;;;;;;;10405046;28;20189;-72
2021/01/15 23:59:26;;;;;;;26.03;14.53;;;;;;;;;;10403621;28;20344;-72
